createdAt,value
2019-03-27T00:02:21.918Z,5.63
2019-03-27T00:07:27.887Z,5.69
2019-03-27T00:12:33.761Z,5.73
2019-03-27T00:17:39.716Z,5.73
2019-03-27T00:22:45.660Z,5.70
2019-03-27T00:27:51.728Z,5.76
2019-03-27T00:38:15.284Z,6.39
2019-03-27T00:43:21.119Z,6.73
2019-03-27T00:48:27.018Z,6.77
2019-03-27T00:53:32.809Z,6.88
2019-03-27T00:58:38.719Z,6.82
2019-03-27T01:03:44.939Z,6.87
2019-03-27T01:08:50.777Z,6.93
2019-03-27T01:13:56.946Z,6.95
2019-03-27T01:19:02.824Z,7.02
2019-03-27T01:24:08.699Z,7.03
2019-03-27T01:29:14.529Z,6.96
2019-03-27T01:34:20.327Z,7.03
2019-03-27T01:39:26.374Z,6.98
2019-03-27T01:44:32.268Z,7.02
2019-03-27T01:49:38.153Z,7.08
2019-03-27T01:54:44.308Z,7.10
2019-03-27T01:59:50.116Z,7.04
2019-03-27T02:04:56.078Z,7.14
2019-03-27T02:10:02.060Z,7.10
2019-03-27T02:15:09.256Z,7.14
2019-03-27T02:20:15.303Z,7.17
2019-03-27T02:25:21.622Z,7.03
2019-03-27T02:30:27.492Z,6.61
2019-03-27T02:35:33.328Z,6.36
2019-03-27T02:40:39.184Z,6.14
2019-03-27T02:45:45.218Z,6.14
2019-03-27T02:50:51.107Z,6.12
2019-03-27T02:55:56.960Z,6.29
2019-03-27T03:01:03.128Z,6.26
2019-03-27T03:06:09.110Z,6.00
2019-03-27T03:11:15.149Z,5.80
2019-03-27T03:16:21.011Z,5.75
2019-03-27T03:21:26.813Z,5.77
2019-03-27T03:26:32.690Z,5.73
2019-03-27T03:31:38.699Z,5.97
2019-03-27T03:36:44.610Z,6.04
2019-03-27T03:41:50.563Z,6.05
2019-03-27T03:47:00.289Z,6.22
2019-03-27T03:52:04.141Z,6.45
2019-03-27T03:57:10.858Z,6.67
2019-03-27T04:02:17.512Z,6.68
2019-03-27T04:07:23.363Z,6.63
2019-03-27T04:12:29.245Z,6.60
2019-03-27T04:17:35.359Z,6.56
2019-03-27T04:22:41.270Z,6.63
2019-03-27T04:27:47.098Z,6.68
2019-03-27T04:32:53.033Z,6.74
2019-03-27T04:37:58.965Z,6.69
2019-03-27T04:43:04.974Z,6.68
2019-03-27T04:48:10.839Z,6.70
2019-03-27T04:53:16.713Z,6.77
2019-03-27T04:58:22.708Z,6.74
2019-03-27T05:03:28.582Z,6.74
2019-03-27T05:08:34.410Z,6.76
2019-03-27T05:13:40.301Z,6.78
2019-03-27T05:18:46.157Z,6.73
2019-03-27T05:23:51.988Z,6.68
2019-03-27T05:28:58.150Z,6.57
2019-03-27T05:34:03.934Z,6.63
2019-03-27T05:39:09.808Z,6.67
2019-03-27T05:44:15.658Z,6.73
2019-03-27T05:49:21.503Z,6.76
2019-03-27T05:54:27.573Z,6.79
2019-03-27T05:59:33.378Z,6.75
2019-03-27T06:04:39.188Z,6.73
2019-03-27T06:09:45.128Z,6.81
2019-03-27T06:14:51.268Z,6.83
2019-03-27T06:19:57.173Z,6.83
2019-03-27T06:25:03.041Z,6.84
2019-03-27T06:30:09.453Z,6.91
2019-03-27T06:35:15.368Z,7.01
2019-03-27T06:40:21.548Z,7.14
2019-03-27T06:45:27.403Z,7.26
2019-03-27T06:50:33.208Z,7.32
2019-03-27T06:55:39.122Z,7.50
2019-03-27T07:00:45.194Z,7.74
2019-03-27T07:05:51.174Z,8.18
2019-03-27T07:10:57.068Z,8.92
2019-03-27T07:16:03.000Z,9.21
2019-03-27T07:21:09.153Z,9.44
2019-03-27T07:26:15.274Z,9.80
2019-03-27T07:31:21.294Z,9.94
2019-03-27T07:36:27.537Z,10.41
2019-03-27T07:41:33.463Z,10.70
2019-03-27T07:46:39.563Z,10.40
2019-03-27T07:51:45.456Z,10.42
2019-03-27T07:56:51.511Z,10.66
2019-03-27T08:01:57.659Z,10.94
2019-03-27T08:07:03.833Z,10.75
2019-03-27T08:12:09.813Z,10.43
2019-03-27T08:17:15.733Z,10.16
2019-03-27T08:22:21.801Z,9.94
2019-03-27T08:27:27.674Z,9.87
2019-03-27T08:32:33.571Z,9.77
2019-03-27T08:37:39.542Z,9.83
2019-03-27T08:42:45.763Z,9.81
2019-03-27T08:47:51.728Z,9.90
2019-03-27T08:52:57.754Z,9.95
2019-03-27T08:58:03.777Z,10.00
2019-03-27T09:03:09.642Z,10.02
2019-03-27T09:08:15.627Z,11.75
2019-03-27T09:13:22.442Z,11.75
2019-03-27T09:18:28.498Z,12.52
2019-03-27T09:23:37.485Z,13.78
2019-03-27T09:28:43.890Z,15.61
2019-03-27T09:33:49.888Z,17.21
2019-03-27T09:38:57.779Z,17.21
2019-03-27T09:44:03.746Z,17.85
2019-03-27T09:49:10.653Z,18.31
2019-03-27T09:54:16.678Z,18.92
2019-03-27T09:59:22.933Z,19.17
2019-03-27T10:04:30.828Z,19.73
2019-03-27T10:09:37.304Z,19.72
2019-03-27T10:14:43.386Z,20.22
2019-03-27T10:20:02.535Z,20.27
2019-03-27T10:24:56.988Z,20.01
2019-03-27T10:30:03.148Z,19.98
2019-03-27T10:35:09.303Z,20.50
2019-03-27T10:40:16.478Z,20.61
2019-03-27T10:45:22.588Z,20.30
2019-03-27T10:50:28.569Z,20.35
2019-03-27T10:55:34.716Z,20.34
2019-03-27T11:00:40.483Z,20.50
2019-03-27T11:05:46.718Z,20.24
2019-03-27T11:10:52.875Z,19.93
2019-03-27T11:15:59.070Z,19.43
2019-03-27T11:21:05.054Z,18.73
2019-03-27T11:26:11.354Z,18.98
2019-03-27T11:31:17.488Z,18.78
2019-03-27T11:36:23.338Z,17.03
2019-03-27T11:41:29.448Z,16.92
2019-03-27T11:46:35.930Z,16.21
2019-03-27T11:51:41.955Z,16.24
2019-03-27T11:56:48.153Z,16.24
2019-03-27T12:01:54.062Z,16.49
2019-03-27T12:07:00.588Z,17.48
2019-03-27T12:12:06.503Z,17.77
2019-03-27T12:17:12.378Z,18.29
2019-03-27T12:22:19.446Z,19.30
2019-03-27T12:27:25.688Z,17.76
2019-03-27T12:32:32.376Z,17.19
2019-03-27T12:37:38.679Z,17.77
2019-03-27T12:42:44.595Z,18.24
2019-03-27T12:47:50.850Z,17.84
2019-03-27T12:52:56.829Z,17.59
2019-03-27T12:58:02.870Z,17.41
2019-03-27T13:03:09.619Z,17.71
2019-03-27T13:08:15.548Z,17.96
2019-03-27T13:13:21.509Z,18.81
2019-03-27T13:18:27.675Z,19.00
2019-03-27T13:23:33.610Z,18.33
2019-03-27T13:28:48.856Z,17.86
2019-03-27T13:33:50.377Z,15.00
2019-03-27T13:38:56.323Z,14.80
2019-03-27T13:44:02.549Z,14.81
2019-03-27T13:49:08.794Z,15.77
2019-03-27T13:54:14.745Z,16.16
2019-03-27T13:59:21.083Z,17.83
2019-03-27T14:04:27.383Z,18.79
2019-03-27T14:09:33.294Z,19.42
2019-03-27T14:14:49.779Z,18.42
2019-03-27T14:19:47.228Z,18.29
2019-03-27T14:24:53.158Z,17.48
2019-03-27T14:29:59.078Z,17.12
2019-03-27T14:35:05.268Z,17.24
2019-03-27T14:40:11.629Z,17.45
2019-03-27T14:45:17.748Z,17.51
2019-03-27T14:50:23.744Z,17.63
2019-03-27T14:55:29.916Z,17.13
2019-03-27T15:00:36.051Z,17.20
2019-03-27T15:05:42.148Z,17.76
2019-03-27T15:10:48.128Z,17.10
2019-03-27T15:15:54.422Z,16.93
2019-03-27T15:21:03.058Z,16.48
2019-03-27T15:26:11.728Z,16.18
2019-03-27T15:31:20.751Z,16.07
2019-03-27T15:36:28.498Z,16.40
2019-03-27T15:41:36.444Z,15.78
2019-03-27T15:46:42.442Z,15.23
2019-03-27T15:51:48.327Z,15.39
2019-03-27T15:56:56.953Z,15.69
2019-03-27T16:02:04.411Z,15.70
2019-03-27T16:07:10.483Z,15.33
2019-03-27T16:12:16.363Z,14.85
2019-03-27T16:17:22.408Z,14.39
2019-03-27T16:22:28.285Z,13.95
2019-03-27T16:27:37.283Z,13.87
2019-03-27T16:32:43.388Z,13.73
2019-03-27T16:37:49.300Z,13.57
2019-03-27T16:42:58.291Z,13.55
2019-03-27T16:48:04.479Z,13.43
2019-03-27T16:53:10.358Z,13.33
2019-03-27T16:58:16.203Z,13.09
2019-03-27T17:03:22.182Z,13.04
2019-03-27T17:08:30.704Z,12.81
2019-03-27T17:13:36.666Z,12.49
2019-03-27T17:18:42.654Z,12.49
2019-03-27T17:23:48.886Z,12.28
2019-03-27T17:28:55.408Z,12.19
2019-03-27T17:34:01.654Z,11.91
2019-03-27T17:39:09.593Z,11.62
2019-03-27T17:44:15.623Z,11.64
2019-03-27T17:49:24.595Z,11.71
2019-03-27T17:54:30.879Z,11.48
2019-03-27T17:59:36.894Z,11.34
2019-03-27T18:04:43.238Z,11.13
2019-03-27T18:09:49.287Z,10.94
2019-03-27T18:14:55.199Z,10.83
2019-03-27T18:20:01.048Z,10.68
2019-03-27T18:25:07.568Z,10.56
2019-03-27T18:30:13.815Z,10.40
2019-03-27T18:35:19.638Z,10.05
2019-03-27T18:40:25.555Z,9.60
2019-03-27T18:45:31.493Z,9.11
2019-03-27T18:50:37.592Z,8.90
2019-03-27T18:55:43.772Z,8.76
2019-03-27T19:00:49.832Z,8.53
2019-03-27T19:05:56.977Z,8.44
2019-03-27T19:11:02.953Z,8.20
2019-03-27T19:16:08.952Z,8.09
2019-03-27T19:21:15.232Z,8.19
2019-03-27T19:26:21.537Z,8.33
2019-03-27T19:31:27.814Z,8.16
2019-03-27T19:36:33.852Z,7.88
2019-03-27T19:41:39.937Z,7.69
2019-03-27T19:46:46.460Z,7.60
2019-03-27T19:51:52.498Z,7.54
2019-03-27T19:56:59.094Z,7.58
2019-03-27T20:02:05.232Z,7.60
2019-03-27T20:07:11.936Z,7.57
2019-03-27T20:12:19.592Z,7.79
2019-03-27T20:17:25.495Z,8.04
2019-03-27T20:22:31.895Z,8.28
2019-03-27T20:27:38.131Z,8.39
2019-03-27T20:32:44.317Z,8.38
2019-03-27T20:37:50.396Z,8.40
2019-03-27T20:42:56.333Z,8.50
2019-03-27T20:48:02.451Z,8.50
2019-03-27T20:53:08.451Z,8.54
2019-03-27T20:58:15.432Z,8.54
2019-03-27T21:03:21.532Z,8.49
2019-03-27T21:08:27.752Z,8.31
2019-03-27T21:13:33.826Z,8.05
2019-03-27T21:18:39.792Z,7.75
2019-03-27T21:23:45.653Z,7.44
2019-03-27T21:28:51.572Z,7.18
2019-03-27T21:33:57.888Z,7.31
2019-03-27T21:39:07.510Z,7.50
2019-03-27T21:44:13.696Z,7.42
2019-03-27T21:49:19.705Z,7.54
2019-03-27T21:54:26.737Z,7.57
2019-03-27T21:59:33.752Z,7.83
2019-03-27T22:04:39.905Z,7.94
2019-03-27T22:09:45.855Z,7.94
2019-03-27T22:14:51.975Z,7.79
2019-03-27T22:19:58.060Z,7.28
2019-03-27T22:25:04.517Z,7.15
2019-03-27T22:30:11.826Z,7.25
2019-03-27T22:35:20.621Z,7.53
2019-03-27T22:40:26.652Z,7.95
2019-03-27T22:45:35.132Z,7.90
2019-03-27T22:50:41.215Z,7.83
2019-03-27T22:55:50.242Z,7.78
2019-03-27T23:00:56.084Z,7.85
2019-03-27T23:06:02.131Z,7.43
2019-03-27T23:11:08.308Z,7.04
2019-03-27T23:16:14.632Z,6.90
2019-03-27T23:21:20.778Z,6.73
2019-03-27T23:26:26.912Z,6.67
2019-03-27T23:31:33.332Z,6.66
2019-03-27T23:36:39.464Z,6.78
2019-03-27T23:41:45.522Z,6.93
2019-03-27T23:46:51.603Z,6.93
2019-03-27T23:51:57.754Z,7.10
2019-03-27T23:57:03.869Z,7.05
